sensor_id;sensor_type;location;lat;lon;timestamp;temperature;humidity
24148;DHT22;12309;51.450;-2.624;2023-05-27T00:01:50;14.50;99.90
24148;DHT22;12309;51.450;-2.624;2023-05-27T00:04:16;14.50;99.90
24148;DHT22;12309;51.450;-2.624;2023-05-27T00:06:42;14.50;99.90
24148;DHT22;12309;51.450;-2.624;2023-05-27T00:09:07;14.30;99.90
24148;DHT22;12309;51.450;-2.624;2023-05-27T00:11:33;14.30;99.90
24148;DHT22;12309;51.450;-2.624;2023-05-27T00:13:59;14.30;99.90
24148;DHT22;12309;51.450;-2.624;2023-05-27T00:16:24;14.20;99.90
24148;DHT22;12309;51.450;-2.624;2023-05-27T00:18:50;14.10;99.90
24148;DHT22;12309;51.450;-2.624;2023-05-27T00:21:17;14.00;99.90
24148;DHT22;12309;51.450;-2.624;2023-05-27T00:23:47;14.00;99.90
24148;DHT22;12309;51.450;-2.624;2023-05-27T00:26:13;14.00;99.90
24148;DHT22;12309;51.450;-2.624;2023-05-27T00:28:40;13.90;99.90
24148;DHT22;12309;51.450;-2.624;2023-05-27T00:31:05;13.90;99.90
24148;DHT22;12309;51.450;-2.624;2023-05-27T00:33:31;13.80;99.90
24148;DHT22;12309;51.450;-2.624;2023-05-27T00:35:57;13.80;99.90
24148;DHT22;12309;51.450;-2.624;2023-05-27T00:38:22;13.80;99.90
24148;DHT22;12309;51.450;-2.624;2023-05-27T00:40:49;13.80;99.90
24148;DHT22;12309;51.450;-2.624;2023-05-27T00:43:18;13.80;99.90
24148;DHT22;12309;51.450;-2.624;2023-05-27T00:45:43;13.70;99.90
24148;DHT22;12309;51.450;-2.624;2023-05-27T00:48:09;13.70;99.90
24148;DHT22;12309;51.450;-2.624;2023-05-27T00:50:35;14.80;99.90
24148;DHT22;12309;51.450;-2.624;2023-05-27T00:53:01;13.70;99.90
24148;DHT22;12309;51.450;-2.624;2023-05-27T00:55:27;13.60;99.90
24148;DHT22;12309;51.450;-2.624;2023-05-27T00:57:53;13.60;99.90
24148;DHT22;12309;51.450;-2.624;2023-05-27T01:00:20;13.50;99.90
24148;DHT22;12309;51.450;-2.624;2023-05-27T01:02:46;13.40;99.90
24148;DHT22;12309;51.450;-2.624;2023-05-27T01:05:15;13.30;99.90
24148;DHT22;12309;51.450;-2.624;2023-05-27T01:10:14;13.20;99.90
24148;DHT22;12309;51.450;-2.624;2023-05-27T01:12:51;13.20;99.90
24148;DHT22;12309;51.450;-2.624;2023-05-27T01:15:21;13.20;99.90
24148;DHT22;12309;51.450;-2.624;2023-05-27T01:17:47;13.10;99.90
24148;DHT22;12309;51.450;-2.624;2023-05-27T01:20:16;13.10;99.90
24148;DHT22;12309;51.450;-2.624;2023-05-27T01:22:43;13.10;99.90
24148;DHT22;12309;51.450;-2.624;2023-05-27T01:25:09;13.10;99.90
24148;DHT22;12309;51.450;-2.624;2023-05-27T01:27:35;13.00;99.90
24148;DHT22;12309;51.450;-2.624;2023-05-27T01:30:01;13.00;99.90
24148;DHT22;12309;51.450;-2.624;2023-05-27T01:32:55;12.90;99.90
24148;DHT22;12309;51.450;-2.624;2023-05-27T01:38:12;12.80;99.90
24148;DHT22;12309;51.450;-2.624;2023-05-27T01:40:40;12.80;99.90
24148;DHT22;12309;51.450;-2.624;2023-05-27T01:43:07;12.80;99.90
24148;DHT22;12309;51.450;-2.624;2023-05-27T01:45:34;12.70;99.90
24148;DHT22;12309;51.450;-2.624;2023-05-27T01:48:00;12.70;99.90
24148;DHT22;12309;51.450;-2.624;2023-05-27T01:50:26;12.70;99.90
24148;DHT22;12309;51.450;-2.624;2023-05-27T01:52:51;12.60;99.90
24148;DHT22;12309;51.450;-2.624;2023-05-27T01:55:17;12.60;99.90
24148;DHT22;12309;51.450;-2.624;2023-05-27T01:57:43;12.60;99.90
24148;DHT22;12309;51.450;-2.624;2023-05-27T02:00:09;12.50;99.90
24148;DHT22;12309;51.450;-2.624;2023-05-27T02:02:35;12.50;99.90
24148;DHT22;12309;51.450;-2.624;2023-05-27T02:05:02;12.40;99.90
24148;DHT22;12309;51.450;-2.624;2023-05-27T02:07:28;12.40;99.90
24148;DHT22;12309;51.450;-2.624;2023-05-27T02:09:53;12.40;99.90
24148;DHT22;12309;51.450;-2.624;2023-05-27T02:12:19;12.40;99.90
24148;DHT22;12309;51.450;-2.624;2023-05-27T02:14:45;12.40;99.90
24148;DHT22;12309;51.450;-2.624;2023-05-27T02:17:11;12.30;99.90
24148;DHT22;12309;51.450;-2.624;2023-05-27T02:19:40;12.30;99.90
24148;DHT22;12309;51.450;-2.624;2023-05-27T02:22:06;12.30;99.90
24148;DHT22;12309;51.450;-2.624;2023-05-27T02:24:32;12.30;99.90
24148;DHT22;12309;51.450;-2.624;2023-05-27T02:26:58;12.20;99.90
24148;DHT22;12309;51.450;-2.624;2023-05-27T02:29:24;12.20;99.90
24148;DHT22;12309;51.450;-2.624;2023-05-27T02:31:50;12.10;99.90
24148;DHT22;12309;51.450;-2.624;2023-05-27T02:34:15;12.10;99.90
24148;DHT22;12309;51.450;-2.624;2023-05-27T02:36:41;11.30;99.90
24148;DHT22;12309;51.450;-2.624;2023-05-27T02:39:08;12.00;99.90
24148;DHT22;12309;51.450;-2.624;2023-05-27T02:41:34;12.00;99.90
24148;DHT22;12309;51.450;-2.624;2023-05-27T02:44:00;12.00;99.90
24148;DHT22;12309;51.450;-2.624;2023-05-27T02:46:25;12.00;99.90
24148;DHT22;12309;51.450;-2.624;2023-05-27T02:48:51;12.00;99.90
24148;DHT22;12309;51.450;-2.624;2023-05-27T02:51:16;11.90;99.90
24148;DHT22;12309;51.450;-2.624;2023-05-27T02:53:42;11.90;99.90
24148;DHT22;12309;51.450;-2.624;2023-05-27T02:56:08;11.80;99.90
24148;DHT22;12309;51.450;-2.624;2023-05-27T02:58:33;11.70;99.90
24148;DHT22;12309;51.450;-2.624;2023-05-27T03:00:59;11.70;99.90
24148;DHT22;12309;51.450;-2.624;2023-05-27T03:03:24;11.70;99.90
24148;DHT22;12309;51.450;-2.624;2023-05-27T03:05:50;11.60;99.90
24148;DHT22;12309;51.450;-2.624;2023-05-27T03:08:16;11.60;99.90
24148;DHT22;12309;51.450;-2.624;2023-05-27T03:10:41;11.50;99.90
24148;DHT22;12309;51.450;-2.624;2023-05-27T03:13:07;11.50;99.90
24148;DHT22;12309;51.450;-2.624;2023-05-27T03:20:28;11.30;99.90
24148;DHT22;12309;51.450;-2.624;2023-05-27T03:22:54;11.30;99.90
24148;DHT22;12309;51.450;-2.624;2023-05-27T03:27:46;11.20;99.90
24148;DHT22;12309;51.450;-2.624;2023-05-27T03:30:12;11.10;99.90
24148;DHT22;12309;51.450;-2.624;2023-05-27T03:32:37;11.10;99.90
24148;DHT22;12309;51.450;-2.624;2023-05-27T03:35:03;11.10;99.90
24148;DHT22;12309;51.450;-2.624;2023-05-27T03:37:29;10.90;99.90
24148;DHT22;12309;51.450;-2.624;2023-05-27T03:42:21;11.00;99.90
24148;DHT22;12309;51.450;-2.624;2023-05-27T03:44:46;11.00;99.90
24148;DHT22;12309;51.450;-2.624;2023-05-27T03:47:12;10.90;99.90
24148;DHT22;12309;51.450;-2.624;2023-05-27T03:49:39;10.90;99.90
24148;DHT22;12309;51.450;-2.624;2023-05-27T03:52:05;10.90;99.90
24148;DHT22;12309;51.450;-2.624;2023-05-27T03:54:31;10.90;99.90
24148;DHT22;12309;51.450;-2.624;2023-05-27T03:56:57;10.80;99.90
24148;DHT22;12309;51.450;-2.624;2023-05-27T03:59:22;10.80;99.90
24148;DHT22;12309;51.450;-2.624;2023-05-27T04:01:48;10.70;99.90
24148;DHT22;12309;51.450;-2.624;2023-05-27T04:04:14;10.80;99.90
24148;DHT22;12309;51.450;-2.624;2023-05-27T04:06:39;10.60;99.90
24148;DHT22;12309;51.450;-2.624;2023-05-27T04:09:07;10.60;99.90
24148;DHT22;12309;51.450;-2.624;2023-05-27T04:11:33;10.50;99.90
24148;DHT22;12309;51.450;-2.624;2023-05-27T04:13:58;10.60;99.90
24148;DHT22;12309;51.450;-2.624;2023-05-27T04:16:24;10.50;99.90
24148;DHT22;12309;51.450;-2.624;2023-05-27T04:18:53;10.40;99.90
24148;DHT22;12309;51.450;-2.624;2023-05-27T04:21:19;10.50;99.90
24148;DHT22;12309;51.450;-2.624;2023-05-27T04:23:44;10.50;99.90
24148;DHT22;12309;51.450;-2.624;2023-05-27T04:26:10;10.40;99.90
24148;DHT22;12309;51.450;-2.624;2023-05-27T04:28:35;10.40;99.90
24148;DHT22;12309;51.450;-2.624;2023-05-27T04:31:02;10.50;99.90
24148;DHT22;12309;51.450;-2.624;2023-05-27T04:33:27;10.50;99.90
24148;DHT22;12309;51.450;-2.624;2023-05-27T04:35:53;10.50;99.90
24148;DHT22;12309;51.450;-2.624;2023-05-27T04:38:21;10.50;99.90
24148;DHT22;12309;51.450;-2.624;2023-05-27T04:40:50;10.50;99.90
24148;DHT22;12309;51.450;-2.624;2023-05-27T04:43:24;10.40;99.90
24148;DHT22;12309;51.450;-2.624;2023-05-27T04:45:52;10.40;99.90
24148;DHT22;12309;51.450;-2.624;2023-05-27T04:48:18;10.40;99.90
24148;DHT22;12309;51.450;-2.624;2023-05-27T04:50:45;10.90;99.90
24148;DHT22;12309;51.450;-2.624;2023-05-27T04:53:11;10.40;99.90
24148;DHT22;12309;51.450;-2.624;2023-05-27T04:55:37;10.40;99.90
24148;DHT22;12309;51.450;-2.624;2023-05-27T04:58:04;10.40;99.90
24148;DHT22;12309;51.450;-2.624;2023-05-27T05:00:30;10.40;99.90
24148;DHT22;12309;51.450;-2.624;2023-05-27T05:03:24;10.50;99.90
24148;DHT22;12309;51.450;-2.624;2023-05-27T05:06:05;10.50;99.90
24148;DHT22;12309;51.450;-2.624;2023-05-27T05:08:31;10.50;99.90
24148;DHT22;12309;51.450;-2.624;2023-05-27T05:10:57;10.50;99.90
24148;DHT22;12309;51.450;-2.624;2023-05-27T05:13:22;10.50;99.90
24148;DHT22;12309;51.450;-2.624;2023-05-27T05:15:48;10.60;99.90
24148;DHT22;12309;51.450;-2.624;2023-05-27T05:18:13;10.60;99.90
24148;DHT22;12309;51.450;-2.624;2023-05-27T05:20:39;10.60;99.90
24148;DHT22;12309;51.450;-2.624;2023-05-27T05:23:07;10.60;99.90
24148;DHT22;12309;51.450;-2.624;2023-05-27T05:25:33;10.50;99.90
24148;DHT22;12309;51.450;-2.624;2023-05-27T05:28:04;10.60;99.90
24148;DHT22;12309;51.450;-2.624;2023-05-27T05:30:30;10.50;99.90
24148;DHT22;12309;51.450;-2.624;2023-05-27T05:32:57;10.50;99.90
24148;DHT22;12309;51.450;-2.624;2023-05-27T05:35:22;10.70;99.90
24148;DHT22;12309;51.450;-2.624;2023-05-27T05:37:48;10.70;99.90
24148;DHT22;12309;51.450;-2.624;2023-05-27T05:40:14;10.60;99.90
24148;DHT22;12309;51.450;-2.624;2023-05-27T05:42:40;10.60;99.90
24148;DHT22;12309;51.450;-2.624;2023-05-27T05:45:06;10.60;99.90
24148;DHT22;12309;51.450;-2.624;2023-05-27T05:47:32;10.60;99.90
24148;DHT22;12309;51.450;-2.624;2023-05-27T05:49:58;10.70;99.90
24148;DHT22;12309;51.450;-2.624;2023-05-27T05:52:23;10.70;99.90
24148;DHT22;12309;51.450;-2.624;2023-05-27T05:54:49;10.80;99.90
24148;DHT22;12309;51.450;-2.624;2023-05-27T05:57:15;10.80;99.90
24148;DHT22;12309;51.450;-2.624;2023-05-27T05:59:41;10.90;99.90
24148;DHT22;12309;51.450;-2.624;2023-05-27T06:02:07;11.00;99.90
24148;DHT22;12309;51.450;-2.624;2023-05-27T06:04:32;11.00;99.90
24148;DHT22;12309;51.450;-2.624;2023-05-27T06:06:58;11.00;99.90
24148;DHT22;12309;51.450;-2.624;2023-05-27T06:09:23;11.20;99.90
24148;DHT22;12309;51.450;-2.624;2023-05-27T06:11:50;11.20;99.90
24148;DHT22;12309;51.450;-2.624;2023-05-27T06:14:16;11.30;99.90
24148;DHT22;12309;51.450;-2.624;2023-05-27T06:16:41;11.30;99.90
24148;DHT22;12309;51.450;-2.624;2023-05-27T06:19:07;11.30;99.90
24148;DHT22;12309;51.450;-2.624;2023-05-27T06:21:33;11.40;99.90
24148;DHT22;12309;51.450;-2.624;2023-05-27T06:23:59;11.30;99.90
24148;DHT22;12309;51.450;-2.624;2023-05-27T06:26:25;11.40;99.90
24148;DHT22;12309;51.450;-2.624;2023-05-27T06:28:52;11.40;99.90
24148;DHT22;12309;51.450;-2.624;2023-05-27T06:31:18;11.40;99.90
24148;DHT22;12309;51.450;-2.624;2023-05-27T06:33:45;11.50;99.90
24148;DHT22;12309;51.450;-2.624;2023-05-27T06:36:10;11.50;99.90
24148;DHT22;12309;51.450;-2.624;2023-05-27T06:38:36;11.60;99.90
24148;DHT22;12309;51.450;-2.624;2023-05-27T06:41:02;11.70;99.90
24148;DHT22;12309;51.450;-2.624;2023-05-27T06:45:53;11.80;99.90
24148;DHT22;12309;51.450;-2.624;2023-05-27T06:48:19;11.90;99.90
24148;DHT22;12309;51.450;-2.624;2023-05-27T06:50:45;12.00;99.90
24148;DHT22;12309;51.450;-2.624;2023-05-27T06:55:38;12.00;99.90
24148;DHT22;12309;51.450;-2.624;2023-05-27T06:58:04;12.30;99.90
24148;DHT22;12309;51.450;-2.624;2023-05-27T07:00:29;12.20;99.90
24148;DHT22;12309;51.450;-2.624;2023-05-27T07:02:55;12.30;99.90
24148;DHT22;12309;51.450;-2.624;2023-05-27T07:05:20;12.50;99.90
24148;DHT22;12309;51.450;-2.624;2023-05-27T07:10:12;12.50;99.90
24148;DHT22;12309;51.450;-2.624;2023-05-27T07:12:38;12.60;99.90
24148;DHT22;12309;51.450;-2.624;2023-05-27T07:15:03;12.60;99.90
24148;DHT22;12309;51.450;-2.624;2023-05-27T07:17:29;12.50;99.90
24148;DHT22;12309;51.450;-2.624;2023-05-27T07:19:55;12.30;99.90
24148;DHT22;12309;51.450;-2.624;2023-05-27T07:22:21;12.20;99.90
24148;DHT22;12309;51.450;-2.624;2023-05-27T07:24:47;11.90;99.90
24148;DHT22;12309;51.450;-2.624;2023-05-27T07:27:12;11.90;99.90
24148;DHT22;12309;51.450;-2.624;2023-05-27T07:29:38;12.10;99.90
24148;DHT22;12309;51.450;-2.624;2023-05-27T07:32:03;12.20;99.90
24148;DHT22;12309;51.450;-2.624;2023-05-27T07:34:29;12.10;99.90
24148;DHT22;12309;51.450;-2.624;2023-05-27T07:36:55;12.10;99.90
24148;DHT22;12309;51.450;-2.624;2023-05-27T07:39:21;12.30;99.90
24148;DHT22;12309;51.450;-2.624;2023-05-27T07:41:47;12.50;99.90
24148;DHT22;12309;51.450;-2.624;2023-05-27T07:44:13;12.50;99.90
24148;DHT22;12309;51.450;-2.624;2023-05-27T07:46:38;12.30;99.90
24148;DHT22;12309;51.450;-2.624;2023-05-27T07:49:04;12.50;99.90
24148;DHT22;12309;51.450;-2.624;2023-05-27T07:51:31;12.60;99.90
24148;DHT22;12309;51.450;-2.624;2023-05-27T07:53:57;12.70;99.90
24148;DHT22;12309;51.450;-2.624;2023-05-27T07:56:22;14.10;99.90
24148;DHT22;12309;51.450;-2.624;2023-05-27T07:58:48;13.00;99.90
24148;DHT22;12309;51.450;-2.624;2023-05-27T08:01:14;13.20;99.90
24148;DHT22;12309;51.450;-2.624;2023-05-27T08:03:39;13.00;99.90
24148;DHT22;12309;51.450;-2.624;2023-05-27T08:06:06;13.20;99.90
24148;DHT22;12309;51.450;-2.624;2023-05-27T08:08:32;12.80;99.90
24148;DHT22;12309;51.450;-2.624;2023-05-27T08:10:58;12.80;99.90
24148;DHT22;12309;51.450;-2.624;2023-05-27T08:13:23;12.80;99.90
24148;DHT22;12309;51.450;-2.624;2023-05-27T08:15:49;13.00;99.90
24148;DHT22;12309;51.450;-2.624;2023-05-27T08:18:15;13.10;99.90
24148;DHT22;12309;51.450;-2.624;2023-05-27T08:23:07;13.60;99.90
24148;DHT22;12309;51.450;-2.624;2023-05-27T08:25:32;14.10;99.90
24148;DHT22;12309;51.450;-2.624;2023-05-27T08:27:58;14.20;99.90
24148;DHT22;12309;51.450;-2.624;2023-05-27T08:30:28;14.30;99.90
24148;DHT22;12309;51.450;-2.624;2023-05-27T08:32:56;14.40;99.90
24148;DHT22;12309;51.450;-2.624;2023-05-27T08:35:22;14.60;99.90
24148;DHT22;12309;51.450;-2.624;2023-05-27T08:40:15;15.80;99.90
24148;DHT22;12309;51.450;-2.624;2023-05-27T08:42:42;15.70;99.90
24148;DHT22;12309;51.450;-2.624;2023-05-27T08:45:09;15.90;99.90
24148;DHT22;12309;51.450;-2.624;2023-05-27T08:47:35;16.70;99.90
24148;DHT22;12309;51.450;-2.624;2023-05-27T08:50:01;17.30;99.90
24148;DHT22;12309;51.450;-2.624;2023-05-27T08:52:27;17.40;99.90
24148;DHT22;12309;51.450;-2.624;2023-05-27T08:54:54;17.80;99.90
24148;DHT22;12309;51.450;-2.624;2023-05-27T08:57:21;17.20;99.90
24148;DHT22;12309;51.450;-2.624;2023-05-27T08:59:53;17.80;99.90
24148;DHT22;12309;51.450;-2.624;2023-05-27T09:02:20;18.20;99.90
24148;DHT22;12309;51.450;-2.624;2023-05-27T09:04:47;18.00;99.90
24148;DHT22;12309;51.450;-2.624;2023-05-27T09:07:12;18.10;99.90
24148;DHT22;12309;51.450;-2.624;2023-05-27T09:09:41;18.10;99.90
24148;DHT22;12309;51.450;-2.624;2023-05-27T09:12:07;18.30;99.90
24148;DHT22;12309;51.450;-2.624;2023-05-27T09:14:34;18.70;99.90
24148;DHT22;12309;51.450;-2.624;2023-05-27T09:17:07;19.40;99.90
24148;DHT22;12309;51.450;-2.624;2023-05-27T09:19:33;19.30;99.90
24148;DHT22;12309;51.450;-2.624;2023-05-27T09:21:59;18.90;99.90
24148;DHT22;12309;51.450;-2.624;2023-05-27T09:24:25;19.00;99.90
24148;DHT22;12309;51.450;-2.624;2023-05-27T09:26:51;18.70;99.90
24148;DHT22;12309;51.450;-2.624;2023-05-27T09:29:23;18.70;99.90
24148;DHT22;12309;51.450;-2.624;2023-05-27T09:31:53;19.10;99.90
24148;DHT22;12309;51.450;-2.624;2023-05-27T09:34:20;19.30;99.90
24148;DHT22;12309;51.450;-2.624;2023-05-27T09:36:47;19.60;99.90
24148;DHT22;12309;51.450;-2.624;2023-05-27T09:39:15;19.40;99.90
24148;DHT22;12309;51.450;-2.624;2023-05-27T09:41:41;19.70;99.90
24148;DHT22;12309;51.450;-2.624;2023-05-27T09:44:08;20.00;99.90
24148;DHT22;12309;51.450;-2.624;2023-05-27T09:46:34;20.10;99.90
24148;DHT22;12309;51.450;-2.624;2023-05-27T09:49:01;20.50;99.90
24148;DHT22;12309;51.450;-2.624;2023-05-27T09:51:28;22.00;99.90
24148;DHT22;12309;51.450;-2.624;2023-05-27T09:53:54;20.50;99.90
24148;DHT22;12309;51.450;-2.624;2023-05-27T09:56:26;20.20;99.90
24148;DHT22;12309;51.450;-2.624;2023-05-27T09:58:56;20.70;99.90
24148;DHT22;12309;51.450;-2.624;2023-05-27T10:01:27;20.70;99.90
24148;DHT22;12309;51.450;-2.624;2023-05-27T10:06:22;21.50;99.90
24148;DHT22;12309;51.450;-2.624;2023-05-27T10:08:49;21.30;99.90
24148;DHT22;12309;51.450;-2.624;2023-05-27T10:16:21;21.50;99.90
24148;DHT22;12309;51.450;-2.624;2023-05-27T10:18:52;21.80;99.90
24148;DHT22;12309;51.450;-2.624;2023-05-27T10:21:22;21.60;99.90
24148;DHT22;12309;51.450;-2.624;2023-05-27T10:24:02;21.90;99.90
24148;DHT22;12309;51.450;-2.624;2023-05-27T10:29:10;21.80;99.90
24148;DHT22;12309;51.450;-2.624;2023-05-27T10:31:43;21.80;99.90
24148;DHT22;12309;51.450;-2.624;2023-05-27T10:34:08;22.20;99.90
24148;DHT22;12309;51.450;-2.624;2023-05-27T10:36:34;22.80;99.00
24148;DHT22;12309;51.450;-2.624;2023-05-27T10:39:06;22.60;87.80
24148;DHT22;12309;51.450;-2.624;2023-05-27T10:41:42;23.00;81.60
24148;DHT22;12309;51.450;-2.624;2023-05-27T10:44:09;23.00;81.40
24148;DHT22;12309;51.450;-2.624;2023-05-27T10:46:42;23.30;63.60
24148;DHT22;12309;51.450;-2.624;2023-05-27T10:49:22;23.40;60.30
24148;DHT22;12309;51.450;-2.624;2023-05-27T10:51:48;23.20;42.10
24148;DHT22;12309;51.450;-2.624;2023-05-27T10:54:15;24.00;49.20
24148;DHT22;12309;51.450;-2.624;2023-05-27T10:56:50;23.80;34.80
24148;DHT22;12309;51.450;-2.624;2023-05-27T10:59:21;24.10;29.60
24148;DHT22;12309;51.450;-2.624;2023-05-27T11:01:51;23.60;12.70
24148;DHT22;12309;51.450;-2.624;2023-05-27T11:04:17;23.80;21.60
24148;DHT22;12309;51.450;-2.624;2023-05-27T11:06:56;24.10;20.80
24148;DHT22;12309;51.450;-2.624;2023-05-27T11:09:22;24.00;14.30
24148;DHT22;12309;51.450;-2.624;2023-05-27T11:11:47;24.10;17.70
24148;DHT22;12309;51.450;-2.624;2023-05-27T11:14:13;24.20;1.00
24148;DHT22;12309;51.450;-2.624;2023-05-27T11:16:39;24.30;1.00
24148;DHT22;12309;51.450;-2.624;2023-05-27T11:19:04;24.80;1.00
24148;DHT22;12309;51.450;-2.624;2023-05-27T11:21:30;25.00;1.00
24148;DHT22;12309;51.450;-2.624;2023-05-27T11:23:56;25.40;1.00
24148;DHT22;12309;51.450;-2.624;2023-05-27T11:26:24;25.70;1.00
24148;DHT22;12309;51.450;-2.624;2023-05-27T11:28:57;25.70;1.00
24148;DHT22;12309;51.450;-2.624;2023-05-27T11:31:30;25.70;1.00
24148;DHT22;12309;51.450;-2.624;2023-05-27T11:33:56;25.50;1.00
24148;DHT22;12309;51.450;-2.624;2023-05-27T11:36:26;26.10;1.00
24148;DHT22;12309;51.450;-2.624;2023-05-27T11:38:57;26.50;1.00
24148;DHT22;12309;51.450;-2.624;2023-05-27T11:41:27;25.40;1.00
24148;DHT22;12309;51.450;-2.624;2023-05-27T11:43:59;26.20;1.00
24148;DHT22;12309;51.450;-2.624;2023-05-27T11:49:07;26.40;1.00
24148;DHT22;12309;51.450;-2.624;2023-05-27T11:51:37;27.10;1.00
24148;DHT22;12309;51.450;-2.624;2023-05-27T11:54:04;27.60;1.00
24148;DHT22;12309;51.450;-2.624;2023-05-27T11:56:30;27.50;1.00
24148;DHT22;12309;51.450;-2.624;2023-05-27T11:58:56;27.80;1.00
24148;DHT22;12309;51.450;-2.624;2023-05-27T12:01:22;27.80;1.00
24148;DHT22;12309;51.450;-2.624;2023-05-27T12:03:48;27.50;1.00
24148;DHT22;12309;51.450;-2.624;2023-05-27T12:06:13;27.70;1.00
24148;DHT22;12309;51.450;-2.624;2023-05-27T12:08:41;27.70;1.00
24148;DHT22;12309;51.450;-2.624;2023-05-27T12:11:06;27.50;1.00
24148;DHT22;12309;51.450;-2.624;2023-05-27T12:13:32;27.90;1.00
24148;DHT22;12309;51.450;-2.624;2023-05-27T12:15:58;27.70;1.00
24148;DHT22;12309;51.450;-2.624;2023-05-27T12:18:24;28.50;1.00
24148;DHT22;12309;51.450;-2.624;2023-05-27T12:20:50;28.20;1.00
24148;DHT22;12309;51.450;-2.624;2023-05-27T12:23:16;28.60;1.00
24148;DHT22;12309;51.450;-2.624;2023-05-27T12:25:42;28.30;1.00
24148;DHT22;12309;51.450;-2.624;2023-05-27T12:28:08;28.60;1.00
24148;DHT22;12309;51.450;-2.624;2023-05-27T12:30:34;29.10;1.00
24148;DHT22;12309;51.450;-2.624;2023-05-27T12:33:01;29.60;1.00
24148;DHT22;12309;51.450;-2.624;2023-05-27T12:37:52;29.40;1.00
24148;DHT22;12309;51.450;-2.624;2023-05-27T12:40:18;29.60;1.00
24148;DHT22;12309;51.450;-2.624;2023-05-27T12:42:44;29.40;1.00
24148;DHT22;12309;51.450;-2.624;2023-05-27T12:45:10;29.90;1.00
24148;DHT22;12309;51.450;-2.624;2023-05-27T12:47:36;30.30;1.00
24148;DHT22;12309;51.450;-2.624;2023-05-27T12:50:02;30.00;1.00
24148;DHT22;12309;51.450;-2.624;2023-05-27T12:52:29;29.20;1.00
24148;DHT22;12309;51.450;-2.624;2023-05-27T12:54:55;29.80;1.00
24148;DHT22;12309;51.450;-2.624;2023-05-27T12:57:20;29.40;1.00
24148;DHT22;12309;51.450;-2.624;2023-05-27T12:59:46;29.60;1.00
24148;DHT22;12309;51.450;-2.624;2023-05-27T13:02:12;29.70;1.00
24148;DHT22;12309;51.450;-2.624;2023-05-27T13:04:37;29.20;1.00
24148;DHT22;12309;51.450;-2.624;2023-05-27T13:07:03;29.10;1.00
24148;DHT22;12309;51.450;-2.624;2023-05-27T13:09:29;29.30;1.00
24148;DHT22;12309;51.450;-2.624;2023-05-27T13:11:56;29.30;1.00
24148;DHT22;12309;51.450;-2.624;2023-05-27T13:14:22;29.70;1.00
24148;DHT22;12309;51.450;-2.624;2023-05-27T13:16:48;29.40;1.00
24148;DHT22;12309;51.450;-2.624;2023-05-27T13:19:14;29.70;1.00
24148;DHT22;12309;51.450;-2.624;2023-05-27T13:21:41;30.50;1.00
24148;DHT22;12309;51.450;-2.624;2023-05-27T13:24:06;30.90;1.00
24148;DHT22;12309;51.450;-2.624;2023-05-27T13:26:32;29.80;1.00
24148;DHT22;12309;51.450;-2.624;2023-05-27T13:28:58;29.60;1.00
24148;DHT22;12309;51.450;-2.624;2023-05-27T13:31:24;29.40;1.00
24148;DHT22;12309;51.450;-2.624;2023-05-27T13:33:50;29.50;1.00
24148;DHT22;12309;51.450;-2.624;2023-05-27T13:36:15;29.70;1.00
24148;DHT22;12309;51.450;-2.624;2023-05-27T13:38:41;29.50;1.00
24148;DHT22;12309;51.450;-2.624;2023-05-27T13:41:07;30.60;1.00
24148;DHT22;12309;51.450;-2.624;2023-05-27T13:43:32;31.10;1.00
24148;DHT22;12309;51.450;-2.624;2023-05-27T13:45:58;31.40;1.00
24148;DHT22;12309;51.450;-2.624;2023-05-27T13:48:24;30.40;1.00
24148;DHT22;12309;51.450;-2.624;2023-05-27T13:50:49;30.70;1.00
24148;DHT22;12309;51.450;-2.624;2023-05-27T13:53:15;31.50;1.00
24148;DHT22;12309;51.450;-2.624;2023-05-27T13:55:41;31.40;1.00
24148;DHT22;12309;51.450;-2.624;2023-05-27T13:58:08;31.70;1.00
24148;DHT22;12309;51.450;-2.624;2023-05-27T14:00:34;31.60;1.00
24148;DHT22;12309;51.450;-2.624;2023-05-27T14:02:59;31.80;1.00
24148;DHT22;12309;51.450;-2.624;2023-05-27T14:05:25;32.20;1.00
24148;DHT22;12309;51.450;-2.624;2023-05-27T14:07:55;31.40;1.00
24148;DHT22;12309;51.450;-2.624;2023-05-27T14:10:21;31.30;1.00
24148;DHT22;12309;51.450;-2.624;2023-05-27T14:12:46;31.50;1.00
24148;DHT22;12309;51.450;-2.624;2023-05-27T14:15:12;32.40;1.00
24148;DHT22;12309;51.450;-2.624;2023-05-27T14:17:38;31.90;1.00
24148;DHT22;12309;51.450;-2.624;2023-05-27T14:20:04;31.00;1.00
24148;DHT22;12309;51.450;-2.624;2023-05-27T14:22:36;31.60;1.00
24148;DHT22;12309;51.450;-2.624;2023-05-27T14:25:01;31.80;1.00
24148;DHT22;12309;51.450;-2.624;2023-05-27T14:27:27;31.40;1.00
24148;DHT22;12309;51.450;-2.624;2023-05-27T14:29:53;32.10;1.00
24148;DHT22;12309;51.450;-2.624;2023-05-27T14:32:18;30.50;1.00
24148;DHT22;12309;51.450;-2.624;2023-05-27T14:34:44;30.50;1.00
24148;DHT22;12309;51.450;-2.624;2023-05-27T14:37:09;30.90;1.00
24148;DHT22;12309;51.450;-2.624;2023-05-27T14:39:35;31.50;1.00
24148;DHT22;12309;51.450;-2.624;2023-05-27T14:42:01;31.30;1.00
24148;DHT22;12309;51.450;-2.624;2023-05-27T14:44:26;31.60;1.00
24148;DHT22;12309;51.450;-2.624;2023-05-27T14:46:52;31.50;1.00
24148;DHT22;12309;51.450;-2.624;2023-05-27T14:51:43;30.90;1.00
24148;DHT22;12309;51.450;-2.624;2023-05-27T14:54:09;31.50;1.00
24148;DHT22;12309;51.450;-2.624;2023-05-27T14:56:37;30.90;1.00
24148;DHT22;12309;51.450;-2.624;2023-05-27T14:59:02;31.90;1.00
24148;DHT22;12309;51.450;-2.624;2023-05-27T15:01:28;31.00;1.00
24148;DHT22;12309;51.450;-2.624;2023-05-27T15:03:54;31.90;1.00
24148;DHT22;12309;51.450;-2.624;2023-05-27T15:06:19;32.50;1.00
24148;DHT22;12309;51.450;-2.624;2023-05-27T15:08:45;32.80;1.00
24148;DHT22;12309;51.450;-2.624;2023-05-27T15:11:11;31.60;1.00
24148;DHT22;12309;51.450;-2.624;2023-05-27T15:13:37;31.60;1.00
24148;DHT22;12309;51.450;-2.624;2023-05-27T15:16:02;31.50;1.00
24148;DHT22;12309;51.450;-2.624;2023-05-27T15:18:29;31.80;1.00
24148;DHT22;12309;51.450;-2.624;2023-05-27T15:20:54;31.50;1.00
24148;DHT22;12309;51.450;-2.624;2023-05-27T15:23:20;32.20;1.00
24148;DHT22;12309;51.450;-2.624;2023-05-27T15:25:46;31.70;1.00
24148;DHT22;12309;51.450;-2.624;2023-05-27T15:28:12;32.80;1.00
24148;DHT22;12309;51.450;-2.624;2023-05-27T15:30:38;32.70;1.00
24148;DHT22;12309;51.450;-2.624;2023-05-27T15:33:04;32.00;1.00
24148;DHT22;12309;51.450;-2.624;2023-05-27T15:35:29;32.10;1.00
24148;DHT22;12309;51.450;-2.624;2023-05-27T15:37:55;31.50;1.00
24148;DHT22;12309;51.450;-2.624;2023-05-27T15:40:21;32.20;1.00
24148;DHT22;12309;51.450;-2.624;2023-05-27T15:42:47;32.00;1.00
24148;DHT22;12309;51.450;-2.624;2023-05-27T15:45:12;32.50;1.00
24148;DHT22;12309;51.450;-2.624;2023-05-27T15:47:42;31.90;1.00
24148;DHT22;12309;51.450;-2.624;2023-05-27T15:50:08;31.10;1.00
24148;DHT22;12309;51.450;-2.624;2023-05-27T15:52:33;31.00;1.00
24148;DHT22;12309;51.450;-2.624;2023-05-27T15:54:59;31.60;1.00
24148;DHT22;12309;51.450;-2.624;2023-05-27T15:57:24;31.50;1.00
24148;DHT22;12309;51.450;-2.624;2023-05-27T15:59:51;31.60;1.00
24148;DHT22;12309;51.450;-2.624;2023-05-27T16:02:17;31.70;1.00